GEMLDAOO

Guest
Details From GEML - MELILLA
To DAOO - ES SENIA
Flight Number -
Tags generated
Created
Modified
Stats Distance 121 nm / 223 km
Max Altitude 4,900 ft / 1,494 m
Waypoints 3
Social Downloads 0
Likes 0
Share VATSIM

Download

Looking for another format? Having issues loading an existing format? Contact us
Advertisement - Login to hide

Notes

Basic altitude profile: - Ascent Rate: 2500ft/min - Ascent Speed: 250kts - Cruise Altitude: 35000ft - Cruise Speed: 420kts - Descent Rate: 1500ft/min - Descent Speed: 250kts Options: - Use NATs: yes - Use PACOTS: yes - Use low airways: yes - Use high airways: yes

Route

GEML HMB DAOO

ID Type Via Altitude Latitude Longitude Leg Dist Tot Dist Heading (true) Name
O GEML APT - 0 ft / 0 m 35.28037˚ -2.95671˚ - 0 nm - MELILLA
HMB NDB - 4,900 ft / 1,494 m 35.36306˚ -0.96889˚ 97 nm 97 nm 87° / 88° HAMMAM BOU HADJAR NDB
O DAOO APT - 0 ft / 0 m 35.62386˚ -0.62118˚ 23 nm 120 nm 47° / 47° ES SENIA

Altitude Profile

Advertisement - Login to hide

GEML

Details ICAO GEML (MLN)
Name MELILLA
Region Ceuta and Melilla
Timezone Africa/Casablanca (UTC+0.0)
Stats Elevation 156 ft / 48 m (AMSL)
Location 35.280374° -2.956708°
Runways 1
Magnetic Variation 0.406° W

METAR

GEML 240600Z 26004KT 230V290 9999 FEW012 OVC018 19/17 Q1012

Decode

TAF

TAF GEML 240200Z 2403/2503 28008KT 9999 SCT010 TX23/2415Z TN18/2405Z PROB40 TEMPO 2403/2411 BKN010 TEMPO 2412/2503 28015G25KT PROB30 TEMPO 2413/2417 28020G35KT

Decode

Departure Runways

ID Width Length Bearing (true) Bearing (mag) Surface Threshold Offset Overrun Length
15 148 ft / 45 m 4,811 ft / 1,466 m 146.39° 146.80° Asphalt 755 ft / 230 m 0 ft / 0 m
33 148 ft / 45 m 4,811 ft / 1,466 m 326.40° 326.81° Asphalt 0 ft / 0 m 0 ft / 0 m

DAOO

Details ICAO DAOO (ORN)
Name ES SENIA
Region Algeria
Timezone Africa/Algiers (UTC+1.0)
Stats Elevation 295 ft / 90 m (AMSL)
Location 35.623858° -0.621183°
Runways 1
Magnetic Variation 0.198° E

METAR

DAOO 240600Z 20004KT 8000 SCT023 19/17 Q1011

Decode

TAF

TAF AMD DAOO 240500Z 2406/2506 20008KT 6000 SCT023 PROB40 TEMPO 2406/2408 VRB02KT 3000 BR SCT010 BECMG 2409/2412 32012KT CAVOK BECMG 2414/2416 26016KT 9999 FEW026 TEMPO 2416/2422 25020G30KT SCT023 BKN030

Decode

Destination Runways

ID Width Length Bearing (true) Bearing (mag) Surface Threshold Offset Overrun Length
07 148 ft / 45 m 10,006 ft / 3,050 m 67.06° 66.86° Asphalt 0 ft / 0 m 328 ft / 100 m
25 148 ft / 45 m 10,006 ft / 3,050 m 247.08° 246.88° Asphalt 196 ft / 60 m 0 ft / 0 m